createdAt,value
2018-08-20T00:01:09.735Z,5.17
2018-08-20T00:03:13.202Z,13.00
2018-08-20T00:05:16.709Z,11.83
2018-08-20T00:07:20.499Z,13.27
2018-08-20T00:09:34.392Z,9.33
2018-08-20T00:11:37.848Z,9.60
2018-08-20T00:13:41.112Z,9.00
2018-08-20T00:15:44.296Z,9.20
2018-08-20T00:17:47.459Z,11.83
2018-08-20T00:19:50.957Z,5.27
2018-08-20T00:21:54.489Z,10.73
2018-08-20T00:23:57.743Z,14.50
2018-08-20T00:26:00.905Z,12.80
2018-08-20T00:28:04.112Z,11.13
2018-08-20T00:30:10.668Z,8.07
2018-08-20T00:32:14.183Z,12.83
2018-08-20T00:34:17.705Z,10.73
2018-08-20T00:36:20.911Z,9.30
2018-08-20T00:38:24.075Z,13.40
2018-08-20T00:40:27.599Z,7.60
2018-08-20T00:42:30.783Z,11.17
2018-08-20T00:44:34.393Z,13.60
2018-08-20T00:46:37.572Z,8.23
2018-08-20T00:48:40.733Z,11.53
2018-08-20T00:50:43.925Z,16.23
2018-08-20T00:52:47.513Z,13.17
2018-08-20T00:54:50.684Z,15.60
2018-08-20T00:56:53.880Z,13.57
2018-08-20T00:58:57.621Z,14.87
2018-08-20T01:01:00.804Z,14.07
2018-08-20T01:03:04.018Z,14.07
2018-08-20T01:05:07.618Z,11.17
2018-08-20T01:07:10.880Z,7.80
2018-08-20T01:09:14.720Z,10.50
2018-08-20T01:11:18.235Z,16.07
2018-08-20T01:13:21.412Z,13.13
2018-08-20T01:15:24.604Z,11.00
2018-08-20T01:17:27.797Z,14.10
2018-08-20T01:19:31.296Z,17.97
2018-08-20T01:21:34.510Z,10.37
2018-08-20T01:23:37.711Z,14.57
2018-08-20T01:25:40.958Z,10.33
2018-08-20T01:27:48.474Z,6.73
2018-08-20T01:29:52.314Z,20.07
2018-08-20T01:31:55.848Z,14.60
2018-08-20T01:33:59.715Z,14.70
2018-08-20T01:36:02.982Z,9.67
2018-08-20T01:38:06.385Z,12.80
2018-08-20T01:40:09.588Z,9.97
2018-08-20T01:42:13.701Z,10.30
2018-08-20T01:44:16.868Z,12.67
2018-08-20T01:46:20.056Z,13.83
2018-08-20T01:48:23.579Z,13.67
2018-08-20T01:50:26.760Z,10.70
2018-08-20T01:52:29.959Z,12.73
2018-08-20T01:54:33.340Z,13.40
2018-08-20T01:56:36.505Z,12.60
2018-08-20T01:58:40.444Z,8.70
2018-08-20T02:00:43.972Z,15.17
2018-08-20T02:02:53.193Z,14.00
2018-08-20T02:04:56.396Z,12.17
2018-08-20T02:06:59.933Z,16.87
2018-08-20T02:09:03.764Z,12.97
2018-08-20T02:11:06.941Z,11.43
2018-08-20T02:13:10.136Z,15.23
2018-08-20T02:15:13.323Z,16.90
2018-08-20T02:17:16.528Z,8.67
2018-08-20T02:19:19.691Z,8.33
2018-08-20T02:21:23.219Z,7.83
2018-08-20T02:23:26.412Z,11.83
2018-08-20T02:25:29.573Z,11.00
2018-08-20T02:27:33.085Z,12.87
2018-08-20T02:29:36.257Z,3.53
2018-08-20T02:31:39.448Z,9.90
2018-08-20T02:33:42.609Z,8.93
2018-08-20T02:35:45.796Z,7.33
2018-08-20T02:37:49.341Z,9.97
2018-08-20T02:39:52.930Z,9.30
2018-08-20T02:41:56.708Z,8.83
2018-08-20T02:44:00.232Z,8.47
2018-08-20T02:46:03.420Z,9.57
2018-08-20T02:48:08.508Z,11.23
2018-08-20T02:50:12.814Z,7.23
2018-08-20T02:52:16.361Z,10.57
2018-08-20T02:54:19.880Z,5.90
2018-08-20T02:56:23.272Z,7.63
2018-08-20T02:58:27.113Z,6.20
2018-08-20T03:00:30.663Z,10.00
2018-08-20T03:02:33.829Z,11.10
2018-08-20T03:04:37.352Z,7.77
2018-08-20T03:06:41.156Z,8.23
2018-08-20T03:08:44.669Z,12.43
2018-08-20T03:10:48.017Z,8.17
2018-08-20T03:12:51.216Z,11.60
2018-08-20T03:14:54.556Z,10.27
2018-08-20T03:16:58.580Z,18.17
2018-08-20T03:19:02.740Z,11.00
2018-08-20T03:21:05.917Z,14.17
2018-08-20T03:23:09.447Z,15.17
2018-08-20T03:25:13.016Z,12.90
2018-08-20T03:27:16.183Z,10.80
2018-08-20T03:29:19.354Z,10.43
2018-08-20T03:31:22.587Z,8.80
2018-08-20T03:33:26.137Z,14.57
2018-08-20T03:35:29.713Z,10.10
2018-08-20T03:37:33.040Z,14.77
2018-08-20T03:39:36.232Z,12.70
2018-08-20T03:41:39.444Z,9.83
2018-08-20T03:43:42.934Z,15.47
2018-08-20T03:45:46.316Z,11.70
2018-08-20T03:47:49.498Z,11.90
2018-08-20T03:49:52.757Z,10.60
2018-08-20T03:51:56.277Z,12.87
2018-08-20T03:53:59.479Z,15.70
2018-08-20T03:56:02.753Z,14.07
2018-08-20T03:58:06.603Z,15.73
2018-08-20T04:00:11.043Z,14.47
2018-08-20T04:02:14.913Z,12.30
2018-08-20T04:04:18.076Z,14.40
2018-08-20T04:06:21.264Z,14.97
2018-08-20T04:08:24.476Z,20.23
2018-08-20T04:10:27.730Z,17.73
2018-08-20T04:12:30.937Z,18.77
2018-08-20T04:14:34.354Z,16.40
2018-08-20T04:16:37.725Z,14.37
2018-08-20T04:18:40.890Z,19.93
2018-08-20T04:20:44.283Z,18.37
2018-08-20T04:22:47.879Z,19.20
2018-08-20T04:24:51.072Z,19.80
2018-08-20T04:26:54.572Z,24.60
2018-08-20T04:28:58.108Z,23.03
2018-08-20T04:31:01.289Z,16.70
2018-08-20T04:33:04.565Z,16.20
2018-08-20T04:35:08.300Z,19.20
2018-08-20T04:37:11.472Z,14.30
2018-08-20T04:39:14.660Z,16.83
2018-08-20T04:41:18.126Z,16.80
2018-08-20T04:43:21.310Z,16.00
2018-08-20T04:45:24.472Z,16.23
2018-08-20T04:47:27.667Z,8.30
2018-08-20T04:49:30.860Z,16.63
2018-08-20T04:51:34.883Z,20.87
2018-08-20T04:53:38.242Z,23.37
2018-08-20T04:55:41.788Z,20.17
2018-08-20T04:57:44.977Z,16.37
2018-08-20T04:59:48.148Z,18.80
2018-08-20T05:01:51.624Z,14.23
2018-08-20T05:03:54.867Z,18.90
2018-08-20T05:05:58.208Z,19.93
2018-08-20T05:08:01.716Z,12.10
2018-08-20T05:10:05.573Z,15.73
2018-08-20T05:12:08.953Z,15.77
2018-08-20T05:14:12.828Z,15.70
2018-08-20T05:16:16.020Z,16.83
2018-08-20T05:18:19.224Z,11.10
2018-08-20T05:20:22.421Z,8.03
2018-08-20T05:22:25.584Z,16.63
2018-08-20T05:24:29.108Z,13.40
2018-08-20T05:26:32.326Z,14.30
2018-08-20T05:28:35.485Z,13.60
2018-08-20T05:30:38.655Z,12.60
2018-08-20T05:32:41.839Z,20.00
2018-08-20T05:34:45.392Z,14.53
2018-08-20T05:36:48.591Z,9.53
2018-08-20T05:38:52.100Z,11.90
2018-08-20T05:40:55.288Z,17.17
2018-08-20T05:42:58.981Z,7.10
2018-08-20T05:45:02.192Z,12.17
2018-08-20T05:47:06.044Z,8.10
2018-08-20T05:49:09.763Z,10.60
2018-08-20T05:51:13.292Z,5.90
2018-08-20T05:53:16.833Z,10.47
2018-08-20T05:55:20.433Z,12.97
2018-08-20T05:57:23.953Z,19.77
2018-08-20T05:59:27.380Z,7.20
2018-08-20T06:01:30.790Z,10.33
2018-08-20T06:03:34.312Z,10.17
2018-08-20T06:05:37.908Z,5.43
2018-08-20T06:07:41.813Z,9.30
2018-08-20T06:09:45.557Z,5.87
2018-08-20T06:11:48.815Z,6.13
2018-08-20T06:13:52.516Z,7.00
2018-08-20T06:15:55.715Z,12.17
2018-08-20T06:17:58.917Z,9.83
2018-08-20T06:20:02.843Z,5.63
2018-08-20T06:22:06.038Z,8.03
2018-08-20T06:24:09.235Z,18.60
2018-08-20T06:26:12.424Z,8.00
2018-08-20T06:28:15.710Z,7.53
2018-08-20T06:30:19.659Z,6.03
2018-08-20T06:32:23.214Z,5.63
2018-08-20T06:34:26.419Z,6.27
2018-08-20T06:36:30.660Z,5.50
2018-08-20T06:38:33.965Z,8.60
2018-08-20T06:40:37.572Z,10.60
2018-08-20T06:42:41.113Z,10.53
2018-08-20T06:44:44.305Z,10.30
2018-08-20T06:46:47.812Z,5.07
2018-08-20T06:48:51.343Z,9.40
2018-08-20T06:50:54.527Z,12.33
2018-08-20T06:52:57.729Z,8.13
2018-08-20T06:55:00.939Z,6.43
2018-08-20T06:57:04.213Z,7.90
2018-08-20T06:59:07.425Z,9.70
2018-08-20T07:01:10.606Z,6.90
2018-08-20T07:03:14.167Z,9.00
2018-08-20T07:05:17.704Z,4.40
2018-08-20T07:07:21.557Z,9.27
2018-08-20T07:09:25.128Z,10.97
2018-08-20T07:11:28.948Z,6.87
2018-08-20T07:13:34.654Z,5.50
2018-08-20T07:15:38.474Z,9.90
2018-08-20T07:17:41.642Z,4.90
2018-08-20T07:19:44.908Z,9.60
2018-08-20T07:21:48.096Z,8.33
2018-08-20T07:23:51.308Z,7.47
2018-08-20T07:25:55.031Z,8.90
2018-08-20T07:27:58.750Z,10.10
2018-08-20T07:30:02.365Z,8.70
2018-08-20T07:32:07.922Z,7.40
2018-08-20T07:34:11.387Z,9.63
2018-08-20T07:36:14.593Z,7.37
2018-08-20T07:38:18.141Z,5.93
2018-08-20T07:40:22.122Z,5.57
2018-08-20T07:42:25.558Z,5.10
2018-08-20T07:44:28.936Z,4.53
2018-08-20T07:46:32.132Z,4.37
2018-08-20T07:48:35.417Z,4.53
2018-08-20T07:50:38.714Z,5.10
2018-08-20T07:52:42.229Z,8.60
2018-08-20T07:54:45.476Z,4.57
2018-08-20T07:56:49.024Z,5.30
2018-08-20T07:58:52.285Z,3.80
2018-08-20T08:00:55.480Z,6.90
2018-08-20T08:02:59.061Z,4.37
2018-08-20T08:05:02.492Z,3.50
2018-08-20T08:07:05.757Z,2.27
2018-08-20T08:09:10.547Z,3.23
2018-08-20T08:11:13.776Z,4.20
2018-08-20T08:13:16.976Z,4.13
2018-08-20T08:15:20.241Z,11.07
2018-08-20T08:17:23.758Z,3.17
2018-08-20T08:19:26.939Z,6.17
2018-08-20T08:21:30.409Z,4.33
2018-08-20T08:23:33.933Z,4.73
2018-08-20T08:25:37.130Z,4.10
2018-08-20T08:27:40.393Z,3.57
2018-08-20T08:29:43.605Z,3.07
2018-08-20T08:31:46.825Z,1.50
2018-08-20T08:33:50.368Z,3.63
2018-08-20T08:35:53.561Z,4.03
2018-08-20T08:37:56.805Z,3.27
2018-08-20T08:40:00.820Z,3.33
2018-08-20T08:42:04.743Z,4.43
2018-08-20T08:44:08.298Z,4.43
2018-08-20T08:46:11.834Z,2.10
2018-08-20T08:48:15.252Z,1.40
2018-08-20T08:50:18.692Z,2.57
2018-08-20T08:52:21.934Z,1.50
2018-08-20T08:54:25.193Z,4.77
2018-08-20T08:56:28.592Z,1.83
2018-08-20T08:58:31.806Z,4.03
2018-08-20T09:00:35.075Z,2.23
2018-08-20T09:02:38.848Z,0.87
2018-08-20T09:04:42.057Z,2.00
2018-08-20T09:06:45.584Z,1.20
2018-08-20T09:08:49.467Z,1.00
2018-08-20T09:10:52.950Z,1.50
2018-08-20T09:12:56.176Z,1.33
2018-08-20T09:14:59.725Z,4.70
2018-08-20T09:17:02.888Z,3.97
2018-08-20T09:19:06.498Z,1.50
2018-08-20T09:21:10.020Z,1.10
2018-08-20T09:23:13.260Z,1.20
2018-08-20T09:25:16.452Z,0.97
2018-08-20T09:27:20.000Z,1.23
2018-08-20T09:29:23.544Z,7.50
2018-08-20T09:31:26.936Z,1.10
2018-08-20T09:33:30.117Z,2.00
2018-08-20T09:35:33.680Z,1.70
2018-08-20T09:37:37.009Z,2.90
2018-08-20T09:39:40.202Z,1.97
2018-08-20T09:41:43.404Z,3.10
2018-08-20T09:43:46.769Z,1.27
2018-08-20T09:45:50.436Z,1.90
2018-08-20T09:47:54.064Z,2.27
2018-08-20T09:49:57.291Z,3.63
2018-08-20T09:52:00.472Z,1.20
2018-08-20T09:54:03.734Z,1.40
2018-08-20T09:56:06.917Z,1.10
2018-08-20T09:58:10.176Z,2.07
2018-08-20T10:00:20.803Z,1.67
2018-08-20T10:02:24.476Z,2.07
2018-08-20T10:04:28.002Z,2.27
2018-08-20T10:06:32.157Z,1.03
2018-08-20T10:08:35.363Z,3.30
2018-08-20T10:10:39.181Z,2.00
2018-08-20T10:12:42.872Z,1.20
2018-08-20T10:14:46.113Z,2.10
2018-08-20T10:16:49.288Z,3.23
2018-08-20T10:18:52.805Z,1.30
2018-08-20T10:20:56.356Z,2.07
2018-08-20T10:23:00.006Z,1.43
2018-08-20T10:25:03.262Z,2.23
2018-08-20T10:27:07.100Z,2.03
2018-08-20T10:29:10.338Z,2.17
2018-08-20T10:31:13.548Z,1.67
2018-08-20T10:33:16.941Z,1.90
2018-08-20T10:35:20.400Z,2.70
2018-08-20T10:37:23.588Z,2.23
2018-08-20T10:39:26.947Z,1.00
2018-08-20T10:41:30.156Z,1.30
2018-08-20T10:43:33.396Z,2.43
2018-08-20T10:45:42.339Z,1.50
2018-08-20T10:47:47.444Z,2.10
2018-08-20T10:49:50.649Z,1.53
2018-08-20T10:51:53.885Z,1.70
2018-08-20T10:53:57.110Z,0.70
2018-08-20T10:56:00.400Z,2.20
2018-08-20T10:58:03.717Z,1.10
2018-08-20T11:00:07.148Z,1.97
2018-08-20T11:02:10.733Z,2.30
2018-08-20T11:04:14.089Z,1.13
2018-08-20T11:06:17.773Z,0.90
2018-08-20T11:08:21.148Z,1.97
2018-08-20T11:10:24.687Z,1.53
2018-08-20T11:12:27.875Z,1.27
2018-08-20T11:14:31.290Z,1.10
2018-08-20T11:16:34.479Z,2.10
2018-08-20T11:18:38.030Z,1.17
2018-08-20T11:20:41.524Z,0.80
2018-08-20T11:22:45.176Z,1.10
2018-08-20T11:24:48.446Z,1.03
2018-08-20T11:26:51.691Z,1.43
2018-08-20T11:28:55.012Z,1.23
2018-08-20T11:30:58.229Z,2.60
2018-08-20T11:33:01.820Z,0.80
2018-08-20T11:35:05.017Z,0.80
2018-08-20T11:37:08.588Z,1.23
2018-08-20T11:39:11.869Z,2.90
2018-08-20T11:41:15.090Z,2.43
2018-08-20T11:43:18.726Z,1.27
2018-08-20T11:45:22.432Z,4.07
2018-08-20T11:47:25.624Z,0.93
2018-08-20T11:49:28.833Z,1.30
2018-08-20T11:51:32.061Z,1.37
2018-08-20T11:53:35.224Z,2.23
2018-08-20T11:55:38.463Z,8.40
2018-08-20T11:57:41.876Z,4.40
2018-08-20T11:59:45.112Z,2.60
2018-08-20T12:01:48.446Z,1.20
2018-08-20T12:03:55.487Z,2.37
2018-08-20T12:05:58.730Z,1.60
2018-08-20T12:08:02.112Z,5.13
2018-08-20T12:10:07.541Z,7.33
2018-08-20T12:12:11.060Z,2.03
2018-08-20T12:14:14.256Z,3.53
2018-08-20T12:16:17.464Z,2.80
2018-08-20T12:18:20.653Z,2.40
2018-08-20T12:20:23.824Z,3.33
2018-08-20T12:22:27.390Z,1.73
2018-08-20T12:24:31.056Z,1.27
2018-08-20T12:26:34.584Z,2.10
2018-08-20T12:28:38.112Z,2.73
2018-08-20T12:30:41.348Z,4.77
2018-08-20T12:32:44.606Z,6.90
2018-08-20T12:34:47.780Z,5.93
2018-08-20T12:36:51.160Z,8.60
2018-08-20T12:38:54.443Z,5.50
2018-08-20T12:40:57.653Z,1.87
2018-08-20T12:43:00.836Z,4.77
2018-08-20T12:45:04.737Z,2.50
2018-08-20T12:47:07.967Z,2.10
2018-08-20T12:49:11.155Z,1.30
2018-08-20T12:51:14.328Z,1.20
2018-08-20T12:53:17.548Z,2.03
2018-08-20T12:55:20.720Z,2.40
2018-08-20T12:57:23.904Z,6.70
2018-08-20T12:59:27.556Z,0.93
2018-08-20T13:01:30.744Z,3.07
2018-08-20T13:03:33.948Z,4.53
2018-08-20T13:05:37.157Z,0.80
2018-08-20T13:07:40.329Z,2.27
2018-08-20T13:09:43.528Z,2.30
2018-08-20T13:11:46.736Z,1.43
2018-08-20T13:13:49.982Z,3.50
2018-08-20T13:15:53.236Z,4.20
2018-08-20T13:17:56.600Z,0.90
2018-08-20T13:20:00.103Z,5.47
2018-08-20T13:22:03.788Z,2.97
2018-08-20T13:24:07.309Z,0.90
2018-08-20T13:26:10.589Z,3.57
2018-08-20T13:28:13.812Z,4.00
2018-08-20T13:30:17.382Z,8.53
2018-08-20T13:32:21.012Z,3.47
2018-08-20T13:34:24.269Z,5.10
2018-08-20T13:36:27.611Z,4.80
2018-08-20T13:38:31.484Z,1.60
2018-08-20T13:40:34.754Z,4.50
2018-08-20T13:42:37.968Z,1.43
2018-08-20T13:44:41.169Z,1.57
2018-08-20T13:46:44.608Z,2.30
2018-08-20T13:48:48.123Z,0.80
2018-08-20T13:50:53.789Z,4.53
2018-08-20T13:52:57.053Z,2.03
2018-08-20T13:55:00.236Z,1.30
2018-08-20T13:57:03.461Z,2.27
2018-08-20T13:59:06.677Z,1.83
2018-08-20T14:01:10.119Z,3.10
2018-08-20T14:03:13.870Z,3.83
2018-08-20T14:05:17.825Z,2.10
2018-08-20T14:07:21.172Z,1.40
2018-08-20T14:09:24.412Z,1.83
2018-08-20T14:11:27.589Z,2.37
2018-08-20T14:13:30.792Z,5.30
2018-08-20T14:15:34.014Z,4.33
2018-08-20T14:17:38.445Z,5.03
2018-08-20T14:19:42.320Z,2.50
2018-08-20T14:21:45.729Z,3.80
2018-08-20T14:23:49.955Z,3.53
2018-08-20T14:25:53.124Z,2.67
2018-08-20T14:27:56.357Z,2.07
2018-08-20T14:29:59.680Z,5.27
2018-08-20T14:32:03.184Z,3.00
2018-08-20T14:34:06.372Z,1.03
2018-08-20T14:36:10.070Z,2.50
2018-08-20T14:38:13.606Z,2.20
2018-08-20T14:40:18.033Z,1.57
2018-08-20T14:42:21.572Z,1.43
2018-08-20T14:44:24.961Z,1.53
2018-08-20T14:46:28.140Z,5.20
2018-08-20T14:48:31.680Z,3.20
2018-08-20T14:50:34.874Z,1.57
2018-08-20T14:52:38.396Z,2.50
2018-08-20T14:54:42.040Z,3.90
2018-08-20T14:56:45.505Z,2.40
2018-08-20T14:58:49.111Z,2.67
2018-08-20T15:00:52.656Z,4.73
2018-08-20T15:02:56.190Z,2.23
2018-08-20T15:04:59.371Z,1.30
2018-08-20T15:07:05.088Z,6.50
2018-08-20T15:09:08.499Z,2.33
2018-08-20T15:11:12.136Z,1.57
2018-08-20T15:13:15.341Z,1.97
2018-08-20T15:15:19.291Z,4.40
2018-08-20T15:17:22.682Z,1.70
2018-08-20T15:19:26.644Z,2.57
2018-08-20T15:21:29.836Z,1.30
2018-08-20T15:23:33.071Z,2.40
2018-08-20T15:25:36.552Z,2.93
2018-08-20T15:27:39.732Z,1.93
2018-08-20T15:29:42.947Z,1.30
2018-08-20T15:31:46.300Z,5.13
2018-08-20T15:33:50.099Z,1.53
2018-08-20T15:35:53.288Z,1.83
2018-08-20T15:37:56.507Z,4.13
2018-08-20T15:39:59.720Z,2.60
2018-08-20T15:42:03.252Z,2.97
2018-08-20T15:44:07.960Z,1.97
2018-08-20T15:46:11.295Z,7.60
2018-08-20T15:48:14.685Z,2.70
2018-08-20T15:50:17.905Z,4.07
2018-08-20T15:52:21.556Z,2.20
2018-08-20T15:54:24.795Z,5.07
2018-08-20T15:56:28.616Z,3.77
2018-08-20T15:58:32.141Z,2.73
2018-08-20T16:00:37.197Z,1.87
2018-08-20T16:02:40.752Z,2.90
2018-08-20T16:04:43.965Z,3.40
2018-08-20T16:06:47.723Z,3.53
2018-08-20T16:08:51.244Z,3.27
2018-08-20T16:10:54.435Z,4.17
2018-08-20T16:12:57.892Z,6.07
2018-08-20T16:15:01.398Z,1.80
2018-08-20T16:17:05.201Z,5.67
2018-08-20T16:19:08.412Z,3.03
2018-08-20T16:21:11.752Z,1.77
2018-08-20T16:23:14.943Z,3.47
2018-08-20T16:25:18.478Z,2.20
2018-08-20T16:27:22.353Z,4.10
2018-08-20T16:29:25.870Z,3.00
2018-08-20T16:31:29.273Z,1.87
2018-08-20T16:33:33.085Z,3.23
2018-08-20T16:35:36.627Z,4.47
2018-08-20T16:37:40.709Z,4.70
2018-08-20T16:39:44.661Z,4.40
2018-08-20T16:41:48.295Z,3.60
2018-08-20T16:43:51.529Z,5.30
2018-08-20T16:45:54.740Z,2.27
2018-08-20T16:47:57.937Z,6.50
2018-08-20T16:50:01.152Z,6.00
2018-08-20T16:52:04.616Z,2.80
2018-08-20T16:54:08.241Z,6.40
2018-08-20T16:56:11.442Z,1.20
2018-08-20T16:58:15.313Z,3.23
2018-08-20T17:00:18.518Z,3.43
2018-08-20T17:02:28.149Z,3.90
2018-08-20T17:04:39.428Z,3.30
2018-08-20T17:06:50.112Z,4.17
2018-08-20T17:08:53.268Z,1.80
2018-08-20T17:10:56.544Z,5.37
2018-08-20T17:12:59.765Z,9.83
2018-08-20T17:15:03.006Z,1.30
2018-08-20T17:17:06.736Z,4.00
2018-08-20T17:19:09.956Z,2.03
2018-08-20T17:21:13.521Z,3.17
2018-08-20T17:23:18.347Z,2.73
2018-08-20T17:25:21.596Z,5.13
2018-08-20T17:27:25.447Z,4.43
2018-08-20T17:29:28.636Z,6.50
2018-08-20T17:31:31.829Z,3.00
2018-08-20T17:33:35.948Z,3.30
2018-08-20T17:35:41.479Z,3.60
2018-08-20T17:37:45.248Z,7.77
2018-08-20T17:40:00.256Z,4.10
2018-08-20T17:42:03.452Z,3.43
2018-08-20T17:44:06.628Z,7.40
2018-08-20T17:46:10.161Z,2.20
2018-08-20T17:48:20.712Z,4.80
2018-08-20T17:50:34.969Z,3.13
2018-08-20T17:52:40.826Z,5.13
2018-08-20T17:54:44.392Z,3.23
2018-08-20T17:56:47.636Z,4.90
2018-08-20T17:58:59.160Z,3.90
2018-08-20T18:01:04.010Z,1.50
2018-08-20T18:03:13.919Z,3.00
2018-08-20T18:05:18.069Z,5.50
2018-08-20T18:07:21.585Z,5.47
2018-08-20T18:09:25.172Z,6.13
2018-08-20T18:11:28.449Z,3.93
2018-08-20T18:13:43.313Z,1.93
2018-08-20T18:15:46.616Z,3.93
2018-08-20T18:17:50.182Z,3.73
2018-08-20T18:19:53.720Z,4.50
2018-08-20T18:21:57.251Z,7.20
2018-08-20T18:24:00.440Z,5.40
2018-08-20T18:26:03.894Z,6.87
2018-08-20T18:28:07.680Z,2.97
2018-08-20T18:30:11.909Z,3.87
2018-08-20T18:32:15.585Z,6.37
2018-08-20T18:34:19.015Z,5.27
2018-08-20T18:36:24.704Z,4.87
2018-08-20T18:38:27.907Z,1.83
2018-08-20T18:40:31.464Z,5.70
2018-08-20T18:42:39.957Z,4.00
2018-08-20T18:44:43.296Z,3.43
2018-08-20T18:46:47.380Z,8.03
2018-08-20T18:48:50.590Z,2.40
2018-08-20T18:50:54.140Z,3.80
2018-08-20T18:52:58.010Z,7.07
2018-08-20T18:55:01.254Z,2.13
2018-08-20T18:57:05.691Z,2.53
2018-08-20T18:59:08.897Z,1.73
2018-08-20T19:01:12.376Z,6.10
2018-08-20T19:03:15.912Z,5.03
2018-08-20T19:05:19.640Z,8.00
2018-08-20T19:07:22.840Z,1.70
2018-08-20T19:09:26.107Z,4.57
2018-08-20T19:11:29.310Z,2.87
2018-08-20T19:13:32.831Z,8.83
2018-08-20T19:15:42.268Z,4.30
2018-08-20T19:17:45.788Z,6.70
2018-08-20T19:19:49.850Z,9.73
2018-08-20T19:21:53.385Z,1.40
2018-08-20T19:23:58.397Z,3.30
2018-08-20T19:26:01.912Z,5.43
2018-08-20T19:28:24.911Z,2.20
2018-08-20T19:30:28.155Z,7.50
2018-08-20T19:32:31.410Z,1.67
2018-08-20T19:34:34.592Z,2.17
2018-08-20T19:36:37.781Z,5.17
2018-08-20T19:38:41.156Z,10.33
2018-08-20T19:40:44.707Z,9.50
2018-08-20T19:42:50.966Z,4.97
2018-08-20T19:44:54.132Z,7.60
2018-08-20T19:46:57.448Z,2.40
2018-08-20T19:49:06.130Z,2.07
2018-08-20T19:51:10.839Z,3.33
2018-08-20T19:53:20.007Z,9.83
2018-08-20T19:55:23.223Z,3.43
2018-08-20T19:57:26.418Z,3.20
2018-08-20T19:59:35.527Z,6.60
2018-08-20T20:01:38.724Z,3.17
2018-08-20T20:03:43.908Z,13.40
2018-08-20T20:05:47.438Z,5.20
2018-08-20T20:07:56.174Z,7.60
2018-08-20T20:09:59.892Z,3.63
2018-08-20T20:12:03.156Z,8.63
2018-08-20T20:14:06.356Z,5.13
2018-08-20T20:16:10.596Z,5.23
2018-08-20T20:18:13.780Z,4.67
2018-08-20T20:20:17.292Z,4.10
2018-08-20T20:22:20.809Z,6.30
2018-08-20T20:24:24.349Z,7.50
2018-08-20T20:26:28.264Z,13.03
2018-08-20T20:28:32.281Z,5.67
2018-08-20T20:30:35.596Z,3.03
2018-08-20T20:32:38.902Z,4.03
2018-08-20T20:34:42.451Z,4.93
2018-08-20T20:36:45.677Z,8.33
2018-08-20T20:38:48.897Z,5.70
2018-08-20T20:40:52.250Z,4.03
2018-08-20T20:42:55.720Z,4.77
2018-08-20T20:44:58.903Z,12.17
2018-08-20T20:47:02.143Z,3.27
2018-08-20T20:49:05.502Z,6.40
2018-08-20T20:51:08.696Z,5.30
2018-08-20T20:53:11.892Z,4.63
2018-08-20T20:55:15.632Z,6.53
2018-08-20T20:57:18.876Z,4.73
2018-08-20T20:59:22.747Z,7.03
2018-08-20T21:01:25.959Z,4.97
2018-08-20T21:03:29.752Z,3.50
2018-08-20T21:05:32.956Z,6.40
2018-08-20T21:07:36.504Z,6.60
2018-08-20T21:09:45.497Z,7.40
2018-08-20T21:11:48.799Z,8.70
2018-08-20T21:13:52.059Z,3.03
2018-08-20T21:16:00.693Z,2.83
2018-08-20T21:18:03.936Z,6.77
2018-08-20T21:20:07.815Z,5.40
2018-08-20T21:22:11.008Z,10.37
2018-08-20T21:24:14.434Z,2.23
2018-08-20T21:26:18.013Z,6.87
2018-08-20T21:28:23.117Z,3.27
2018-08-20T21:30:30.552Z,5.80
2018-08-20T21:32:34.179Z,1.50
2018-08-20T21:34:40.801Z,5.57
2018-08-20T21:36:43.989Z,5.93
2018-08-20T21:38:47.459Z,2.07
2018-08-20T21:40:50.714Z,4.03
2018-08-20T21:42:53.979Z,3.60
2018-08-20T21:44:58.097Z,1.93
2018-08-20T21:47:15.336Z,7.43
2018-08-20T21:49:18.592Z,2.93
2018-08-20T21:51:34.316Z,4.60
2018-08-20T21:53:38.024Z,5.90
2018-08-20T21:55:41.724Z,2.87
2018-08-20T21:57:53.076Z,2.93
2018-08-20T22:00:08.169Z,5.70
2018-08-20T22:02:12.284Z,3.30
2018-08-20T22:04:18.984Z,3.63
2018-08-20T22:06:22.841Z,4.00
2018-08-20T22:08:26.245Z,5.43
2018-08-20T22:10:30.016Z,6.60
2018-08-20T22:12:33.398Z,3.00
2018-08-20T22:14:36.865Z,7.63
2018-08-20T22:16:40.058Z,3.30
2018-08-20T22:18:44.986Z,5.70
2018-08-20T22:20:48.210Z,15.80
2018-08-20T22:22:51.397Z,4.20
2018-08-20T22:25:02.041Z,3.10
2018-08-20T22:27:06.020Z,3.33
2018-08-20T22:29:09.531Z,7.63
2018-08-20T22:31:12.721Z,2.90
2018-08-20T22:33:15.912Z,3.60
2018-08-20T22:35:26.655Z,2.60
2018-08-20T22:37:30.204Z,1.87
2018-08-20T22:39:34.124Z,3.30
2018-08-20T22:41:38.013Z,10.77
2018-08-20T22:43:41.180Z,4.87
2018-08-20T22:45:44.388Z,7.63
2018-08-20T22:47:48.796Z,1.53
2018-08-20T22:49:51.975Z,2.03
2018-08-20T22:51:55.164Z,10.37
2018-08-20T22:53:59.904Z,5.87
2018-08-20T22:56:13.148Z,2.40
2018-08-20T22:58:16.328Z,8.30
2018-08-20T23:00:24.926Z,3.27
2018-08-20T23:02:28.131Z,4.50
2018-08-20T23:04:31.411Z,6.40
2018-08-20T23:06:35.170Z,7.23
2018-08-20T23:08:38.396Z,5.87
2018-08-20T23:10:43.200Z,4.23
2018-08-20T23:12:46.418Z,8.30
2018-08-20T23:14:50.159Z,4.47
2018-08-20T23:16:53.845Z,4.77
2018-08-20T23:18:57.387Z,2.20
2018-08-20T23:21:00.564Z,3.13
2018-08-20T23:23:03.765Z,2.67
2018-08-20T23:25:06.976Z,6.80
2018-08-20T23:27:10.524Z,14.40
2018-08-20T23:29:13.742Z,2.50
2018-08-20T23:31:16.940Z,5.40
2018-08-20T23:33:20.184Z,5.37
2018-08-20T23:35:23.364Z,4.83
2018-08-20T23:37:26.580Z,10.83
2018-08-20T23:39:29.768Z,11.67
2018-08-20T23:41:33.282Z,3.57
2018-08-20T23:43:36.928Z,2.83
2018-08-20T23:45:40.480Z,3.93
2018-08-20T23:47:43.680Z,5.57
2018-08-20T23:49:46.919Z,3.47
2018-08-20T23:51:50.493Z,9.23
2018-08-20T23:53:53.692Z,5.20
2018-08-20T23:55:57.305Z,8.57
2018-08-20T23:58:00.860Z,3.93
